Flight Track Log - Related Links

Times and Time Zones

All times are in EDT time to prevent confusion due to time zone crossing. See the EGF3773 flight status page for this flight to view local times or setup timezone preferences in your user account.

Time Position Orientation Groundspeed Altitude Reporting Facility
EDT Latitude Longitude Course Direction KTS MPH feet Rate Location/Type
Sun 08:18:13 PM 39.8833 -104.5833 66° East 192 221 6,700  Level Denver TRACON
Sun 08:19:13 PM 39.9000 -104.5000 75° East 250 288 9,100 2,474 Climbing Denver TRACON
Sun 08:20:00 PM 39.9231 -104.2387 73° East  Level FlightAware Approximate
Sun 08:20:07 PM 39.9167 -104.4167 75° East 269 310 11,400  Level Denver TRACON
Sun 08:21:00 PM 39.9556 -104.0983 73° East  Level FlightAware Approximate
Sun 08:21:07 PM 39.9333 -104.3167 78° East 313 360 12,800  Level Denver TRACON
Sun 08:22:00 PM 39.9757 -103.9561 66° East  Level FlightAware Approximate
Sun 08:22:10 PM 39.9642 -104.1869 73° East 362 417 14,200  Level Denver Center
Sun 08:23:00 PM 40.0010 -103.8136 66° East  Level FlightAware Approximate
Sun 08:23:11 PM 39.9839 -104.0414 80° East 378 435 16,400  Level Denver Center
Sun 08:24:13 PM 39.9994 -103.9008 82° East 392 451 18,200 1,742 Climbing Denver Center
Sun 08:25:15 PM 40.0214 -103.7633 78° East 389 448 20,000 1,561 Climbing Denver Center
Sun 08:26:16 PM 40.0414 -103.6456 77° East 385 443 21,400 1,355 Climbing Denver Center
Sun 08:27:19 PM 40.0711 -103.4728 77° East 414 476 22,800 1,248 Climbing Denver Center
Sun 08:28:21 PM 40.0942 -103.3208 79° East 422 486 24,000 1,220 Climbing Denver Center
Sun 08:29:22 PM 40.1200 -103.1644 78° East 436 502 25,300 1,220 Climbing Denver Center
Sun 08:30:24 PM 40.1447 -103.0086 78° East 436 502 26,500 823 Climbing Denver Center
Sun 08:31:26 PM 40.1731 -102.8194 79° East 452 520 27,000 581 Climbing Denver Center
Sun 08:32:28 PM 40.1967 -102.6667 79° East 470 541 27,700 919 Climbing Denver Center
Sun 08:33:30 PM 40.2264 -102.4778 78° East 476 548 28,900 629 Climbing Denver Center
Sun 08:34:32 PM 40.2517 -102.3131 79° East 481 554 29,000 49 Climbing Denver Center
Sun 08:35:33 PM 40.2811 -102.1097 79° East 507 583 29,000  Level Denver Center
Sun 08:36:35 PM 40.3083 -101.9400 78° East 500 575 29,000  Level Denver Center
Sun 08:37:37 PM 40.3358 -101.7458 79° East 486 559 29,000 484 Level Denver Center
Sun 08:38:39 PM 40.3603 -101.5797 79° East 487 560 30,000 1,016 Climbing Denver Center
Sun 08:39:41 PM 40.3883 -101.3856 79° East 488 562 31,100 1,024 Climbing Denver Center
Sun 08:40:42 PM 40.4125 -101.2189 79° East 489 563 32,100 829 Climbing Denver Center
Sun 08:41:44 PM 40.4508 -101.0575 73° East 489 563 32,800 726 Climbing Denver Center
Sun 08:42:46 PM 40.5147 -100.8789 65° Northeast 488 562 33,600 774 Climbing Denver Center
Sun 08:43:48 PM 40.5700 -100.7244 65° Northeast 491 565 34,400 829 Climbing Denver Center
Sun 08:44:49 PM 40.6339 -100.5461 65° Northeast 490 564 35,300 780 Climbing Denver Center
Sun 08:45:51 PM 40.6881 -100.3931 65° Northeast 488 562 36,000 774 Climbing Denver Center
Sun 08:46:53 PM 40.7508 -100.2158 65° Northeast 481 554 36,900 484 Climbing Denver Center
Sun 08:47:55 PM 40.8039 -100.0619 65° Northeast 482 555 37,000 48 Climbing Denver Center
Sun 08:48:57 PM 40.8669 -99.8817 65° Northeast 486 559 37,000  Level Denver Center
Sun 08:49:58 PM 40.9194 -99.7300 65° Northeast 478 550 37,000 -537 Level Denver Center
Sun 08:51:00 PM 40.9736 -99.5708 66° East 474 545 35,900 -968 Descending Denver Center
Sun 08:52:02 PM 41.0292 -99.4072 66° East 482 555 35,000 -435 Descending Denver Center
Sun 08:53:04 PM 41.0983 -99.2028 66° East 502 578 35,000  Level Denver Center
Sun 08:54:05 PM 41.1519 -99.0422 66° East 510 587 35,000  Level Denver Center
Sun 08:55:07 PM 41.2156 -98.8517 66° East 508 585 35,000  Level Denver Center
Sun 08:55:28 PM 41.2314 -98.8122 62° Northeast 508 585 35,000  Level Minneapolis Center
Sun 08:56:30 PM 41.2850 -98.6456 67° East 495 570 35,000  Level Minneapolis Center
Sun 08:57:31 PM 41.3381 -98.4842 66° East 484 557 35,000  Level Minneapolis Center
Sun 08:58:33 PM 41.4011 -98.2881 67° East 482 555 35,000  Level Minneapolis Center
Sun 08:59:35 PM 41.4533 -98.1283 66° East 477 549 35,000  Level Minneapolis Center
Sun 09:00:37 PM 41.5000 -97.9650 69° East 473 544 35,000  Level Minneapolis Center
Sun 09:01:39 PM 41.5189 -97.7933 82° East 469 540 35,000  Level Minneapolis Center
Sun 09:02:41 PM 41.5469 -97.6231 78° East 469 540 35,000  Level Minneapolis Center
Sun 09:03:42 PM 41.5733 -97.4494 78° East 472 543 35,000  Level Minneapolis Center
Sun 09:04:44 PM 41.5997 -97.2758 78° East 475 547 35,000  Level Minneapolis Center
Sun 09:05:46 PM 41.6267 -97.1000 78° East 478 550 35,000  Level Minneapolis Center
Sun 09:06:48 PM 41.6589 -96.8908 78° East 479 551 35,000  Level Minneapolis Center
Sun 09:07:50 PM 41.6853 -96.7194 78° East 475 547 35,000  Level Minneapolis Center
Sun 09:08:52 PM 41.7094 -96.5503 79° East 466 536 35,000  Level Minneapolis Center
Sun 09:09:53 PM 41.7342 -96.3806 79° East 463 533 35,000  Level Minneapolis Center
Sun 09:10:55 PM 41.7572 -96.2119 80° East 460 529 35,000  Level Minneapolis Center
Sun 09:11:57 PM 41.7811 -96.0447 79° East 454 522 35,000  Level Minneapolis Center
Sun 09:12:59 PM 41.8053 -95.8761 79° East 456 525 35,000  Level Minneapolis Center
Sun 09:14:00 PM 41.8286 -95.7103 79° East 452 520 35,000  Level Minneapolis Center
Sun 09:15:02 PM 41.8494 -95.5428 80° East 454 522 35,000  Level Minneapolis Center
Sun 09:16:04 PM 41.8719 -95.3775 80° East 451 519 35,000  Level Minneapolis Center
Sun 09:17:06 PM 41.8983 -95.1806 80° East 447 514 35,000  Level Minneapolis Center
Sun 09:18:07 PM 41.9203 -95.0178 80° East 444 511 35,000  Level Minneapolis Center
Sun 09:19:09 PM 41.9414 -94.8536 80° East 445 512 35,000  Level Minneapolis Center
Sun 09:20:11 PM 41.9617 -94.6917 80° East 441 507 35,000  Level Minneapolis Center
Sun 09:21:12 PM 41.9831 -94.5308 80° East 438 504 35,000  Level Minneapolis Center
Sun 09:22:14 PM 42.0031 -94.3708 80° East 435 501 35,000  Level Minneapolis Center
Sun 09:23:15 PM 42.0231 -94.2106 80° East 434 499 35,000  Level Minneapolis Center
Sun 09:24:17 PM 42.0419 -94.0517 81° East 431 496 35,000  Level Minneapolis Center
Sun 09:25:30 PM 42.0664 -93.8597 80° East 433 498 35,000  Level Minneapolis Center
Sun 09:26:32 PM 42.0872 -93.6931 80° East 431 496 35,000  Level Minneapolis Center
Sun 09:27:33 PM 42.1017 -93.5667 81° East 432 497 35,000  Level Minneapolis Center
Sun 09:28:35 PM 42.1278 -93.3436 81° East 434 499 35,000  Level Minneapolis Center
Sun 09:29:36 PM 42.1453 -93.1836 82° East 436 502 35,000  Level Minneapolis Center
Sun 09:30:38 PM 42.1642 -93.0214 81° East 440 506 35,000  Level Minneapolis Center
Sun 09:31:39 PM 42.1822 -92.8575 81° East 446 513 35,000  Level Minneapolis Center
Sun 09:32:41 PM 42.2022 -92.6919 81° East 450 518 35,000  Level Minneapolis Center
Sun 09:33:42 PM 42.2200 -92.5244 82° East 454 522 35,000  Level Minneapolis Center
Sun 09:34:43 PM 42.2419 -92.3231 82° East 456 525 35,000  Level Minneapolis Center
Sun 09:35:45 PM 42.2597 -92.1550 82° East 457 526 35,000 -275 Level Minneapolis Center
Sun 09:36:32 PM 42.2736 -92.0167 82° East 462 532 34,500 -881 Descending Chicago Center
Sun 09:37:34 PM 42.2900 -91.8514 82° East 455 524 33,400 -1,024 Descending Chicago Center
Sun 09:38:35 PM 42.3067 -91.6933 82° East 438 504 32,400 -1,024 Descending Chicago Center
Sun 09:39:37 PM 42.3225 -91.5297 82° East 445 512 31,300 -1,171 Descending Chicago Center
Sun 09:40:38 PM 42.3425 -91.3258 82° East 463 533 30,000 -1,122 Descending Chicago Center
Sun 09:41:40 PM 42.3592 -91.1556 82° East 464 534 29,000 -488 Descending Chicago Center
Sun 09:42:41 PM 42.3753 -90.9872 83° East 459 528 29,000  Level Chicago Center
Sun 09:43:43 PM 42.3911 -90.8197 83° East 456 525 29,000 -293 Level Chicago Center
Sun 09:44:44 PM 42.4075 -90.6531 82° East 454 522 28,400 -787 Descending Chicago Center
Sun 09:45:45 PM 42.4242 -90.4922 82° East 441 507 27,400 -1,073 Descending Chicago Center
Sun 09:46:47 PM 42.4419 -90.3044 83° East 426 490 26,200 -1,073 Descending Chicago Center
Sun 09:47:48 PM 42.4583 -90.1494 82° East 421 484 25,200 -934 Descending Chicago Center
Sun 09:48:49 PM 42.4731 -89.9947 83° East 419 482 24,300 -976 Descending Chicago Center
Sun 09:49:51 PM 42.4886 -89.8322 83° East 420 483 23,200 -1,024 Descending Chicago Center
Sun 09:50:52 PM 42.5042 -89.6761 82° East 419 482 22,200 -984 Descending Chicago Center
Sun 09:51:53 PM 42.5192 -89.5217 82° East 416 479 21,200 -585 Descending Chicago Center
Sun 09:52:55 PM 42.5325 -89.3661 83° East 418 481 21,000 -1,220 Descending Chicago Center
Sun 09:53:56 PM 42.5022 -89.1844 103° East 421 484 18,700 -2,244 Descending Chicago Center
Sun 09:54:58 PM 42.4756 -89.0406 104° East 402 463 16,400 -2,293 Descending Chicago Center
Sun 09:55:59 PM 42.4497 -88.9017 104° East 387 445 14,000 -2,361 Descending Chicago Center
Sun 09:57:00 PM 42.4256 -88.7681 104° East 374 430 11,600 -1,805 Descending Chicago Center
Sun 09:58:02 PM 42.4033 -88.6503 104° East 339 390 10,300 -1,122 Descending Chicago Center
Sun 09:59:03 PM 42.3839 -88.5467 104° East 298 343 9,300 -639 Descending Chicago Center
Sun 10:00:04 PM 42.3603 -88.4483 108° East 281 323 9,000 -146 Descending Chicago Center
Sun 10:01:06 PM 42.2997 -88.3819 141° Southeast 274 315 9,000  Level Chicago Center
Sun 10:02:07 PM 42.2311 -88.3361 154° Southeast 276 318 9,000 -246 Level Chicago Center
Sun 10:03:08 PM 42.1650 -88.3308 177° South 235 270 8,500 -732 Descending Chicago Center
Sun 10:04:10 PM 42.0994 -88.3244 176° South 238 274 7,500 -927 Descending Chicago Center
Sun 10:05:11 PM 42.0406 -88.3194 176° South 218 251 6,600 -984 Descending Chicago Center
Sun 10:06:12 PM 41.9814 -88.3172 178° South 213 245 5,500 -774 Descending Chicago Center
Sun 10:07:15 PM 41.9678 -88.2600 108° East 172 198 5,000 -390 Descending Chicago Center
Sun 10:08:15 PM 41.9675 -88.1969 90° East 170 196 4,700 -595 Descending Chicago Center
Sun 10:09:16 PM 41.9675 -88.1375 90° East 164 189 3,800 -976 Descending Chicago Center
Sun 10:10:18 PM 41.9683 -88.0750 89° East 164 189 2,700 -857 Descending Chicago Center
Sun 10:11:29 PM 41.9667 -88.0000 92° East 138 159 1,900 -733 Descending Chicago TRACON
Sun 10:12:29 PM 41.9667 -87.9500 90° East 129 148 1,100 -800 Descending Chicago TRACON

Login

Don't have an account? Register now (free) for customized features, flight alerts, and more!